Terminal Aerodrome Forecast
Issued by NWS

Current Version | Previous Version | Text Only | Print | Product List | Glossary Off
Versions: 1 2 3 4 5 6 7 8 9 10 11 12 13 14 15 16 17 18 19 20 21

000
FTUS41 KILN 220810 AAA
TAFLCK
TAF AMD
KLCK 220810Z 2208/2306 18004KT P6SM FEW140 OVC250
     FM221400 25009KT P6SM SCT040 BKN150
     FM221700 24011KT P6SM VCTS SCT040CB BKN150
     FM230000 24004KT P6SM SCT250=

USA.gov is the U.S. government's official web portal to all federal, state and local government web resources and services.